• Join FlightAware (Why Join?)
  • Login
  • US Flag 
01:26PM EDT


 

Airport Tracker/Info


-or-


 

Live Flight TrackerFlight Track Log ✈ GJS3657 ✈ 13-Jun-2013 ✈ KALB - KORD

Flight Track Log - Related Links

Times and Time Zones

All times are in EDT time to prevent confusion due to time zone crossing. See the GJS3657 flight status page for this flight to view local times or setup timezone preferences in your user account.

Time Position Orientation Groundspeed Altitude Reporting Facility
EDT Latitude Longitude Course Direction KTS MPH feet Rate Location/Type
07:07AM 42.7672 -73.8061 331° Northwest 168 193 1,200  Level Boston Center
07:09AM 42.8253 -73.8500 331° Northwest 228 262 3,900 2,160 Climbing Boston Center
07:10AM 42.8764 -73.9133 318° Northwest 281 323 5,700 2,400 Climbing Boston Center
07:11AM 42.9297 -73.9883 314° West 287 330 8,700 2,580 Climbing Boston Center
07:12AM 42.9806 -74.0664 312° West 277 319 10,900 1,980 Climbing Boston Center
07:13AM 43.0186 -74.1722 296° West 295 339 12,700 1,740 Climbing Boston Center
07:14AM 43.0586 -74.2814 297° West 316 364 14,400 1,980 Climbing Boston Center
07:15AM 43.1006 -74.3964 297° West 329 379 16,700 1,680 Climbing Boston Center
07:16AM 43.1383 -74.5003 297° West 329 379 17,800 1,200 Climbing Boston Center
07:17AM 43.1842 -74.6183 298° West 338 389 19,200 1,320 Climbing Boston Center
07:18AM 43.2275 -74.7453 295° West 351 404 20,500 1,500 Climbing Boston Center
07:19AM 43.2728 -74.8697 297° West 361 415 22,200 1,500 Climbing Boston Center
07:20AM 43.3161 -74.9886 297° West 361 415 23,600 1,080 Climbing Boston Center
07:21AM 43.3669 -75.1278 297° West 361 415 24,400 840 Climbing Boston Center
07:22AM 43.4139 -75.2614 296° West 380 437 25,300 900 Climbing Boston Center
07:23AM 43.4625 -75.3981 296° West 386 444 26,200 900 Climbing Boston Center
07:24AM 43.5069 -75.5292 295° West 386 444 27,200 960 Climbing Boston Center
07:25AM 43.5533 -75.6633 296° West 386 444 28,200 840 Climbing Boston Center
07:26AM 43.6017 -75.7950 297° West 386 444 28,900 600 Climbing Boston Center
07:27AM 43.6478 -75.9294 295° West 386 444 29,500 600 Climbing Boston Center
07:28AM 43.6956 -76.0672 296° West 386 444 30,100 600 Climbing Boston Center
07:29AM 43.7453 -76.2053 297° West 391 450 30,700 600 Climbing Boston Center
07:30AM 43.7925 -76.3494 294° West 391 450 31,300 660 Climbing Boston Center
07:31AM 43.8419 -76.4878 296° West 391 450 32,100 900 Climbing Boston Center
07:32AM 43.8892 -76.6267 295° West 396 456 33,100 1,020 Climbing Boston Center
07:32AM 43.9167 -76.7000 298° West 400 460 33,900 840 Climbing Toronto Center
07:33AM 43.9500 -76.8333 289° West 380 437 34,600 600 Climbing Toronto Center
07:34AM 43.9500 -76.9667 270° West 370 426 35,200 600 Climbing Toronto Center
07:35AM 43.9333 -77.1167 261° West 370 426 35,800 600 Climbing Toronto Center
07:36AM 43.9167 -77.2500 260° West 370 426 36,400 600 Climbing Toronto Center
07:37AM 43.9167 -77.3833 270° West 370 426 37,000 600 Climbing Toronto Center
07:38AM 43.9000 -77.5333 261° West 370 426 37,600 480 Climbing Toronto Center
07:39AM 43.8833 -77.6667 260° West 360 414 38,000 180 Climbing Toronto Center
07:40AM 43.8667 -77.8000 260° West 360 414 38,000  Level Toronto Center
07:41AM 43.8500 -77.9500 261° West 370 426 38,000  Level Toronto Center
07:42AM 43.8333 -78.0833 260° West 380 437 38,000  Level Toronto Center
07:43AM 43.8167 -78.2167 260° West 380 437 38,000  Level Toronto Center
07:44AM 43.8000 -78.3833 262° West 380 437 38,000  Level Toronto Center
07:45AM 43.8000 -78.5167 270° West 380 437 38,000  Level Toronto Center
07:46AM 43.7667 -78.6833 255° West 380 437 38,000  Level Toronto Center
07:47AM 43.7500 -78.8333 261° West 380 437 38,000  Level Toronto Center
07:48AM 43.7333 -78.9667 260° West 380 437 38,000  Level Toronto Center
07:49AM 43.7167 -79.1000 260° West 390 449 38,000  Level Toronto Center
07:50AM 43.7000 -79.2667 262° West 390 449 38,000  Level Toronto Center
07:52AM 43.6667 -79.5333 260° West 400 460 38,000  Level Toronto Center
07:53AM 43.6500 -79.7000 262° West 400 460 38,000  Level Toronto Center
07:54AM 43.6333 -79.8667 262° West 400 460 38,000  Level Toronto Center
07:55AM 43.6167 -80.0000 260° West 390 449 38,000  Level Toronto Center
07:56AM 43.6000 -80.1667 262° West 400 460 38,000  Level Toronto Center
07:57AM 43.5833 -80.3000 260° West 400 460 38,000  Level Toronto Center
07:58AM 43.5667 -80.4667 262° West 400 460 38,000  Level Toronto Center
07:59AM 43.5333 -80.6167 253° West 400 460 38,000  Level Toronto Center
08:00AM 43.5167 -80.7667 261° West 410 472 38,000  Level Toronto Center
08:01AM 43.4833 -80.9167 253° West 410 472 38,000  Level Toronto Center
08:02AM 43.4667 -81.0833 262° West 400 460 38,000  Level Toronto Center
08:03AM 43.4500 -81.2167 260° West 390 449 38,000  Level Toronto Center
08:04AM 43.4333 -81.3500 260° West 380 437 38,000  Level Toronto Center
08:05AM 43.4167 -81.5000 261° West 380 437 38,000  Level Toronto Center
08:06AM 43.4000 -81.6500 261° West 380 437 38,000  Level Toronto Center
08:07AM 43.3667 -81.7667 249° West 380 437 38,000  Level Toronto Center
08:08AM 43.2667 -81.8500 211° Southwest 400 460 38,000  Level Toronto Center
08:09AM 43.1500 -81.9167 203° Southwest 410 472 38,000  Level Toronto Center
08:10AM 43.0500 -81.9833 206° Southwest 410 472 38,000  Level Toronto Center
08:11AM 42.9500 -82.0500 206° Southwest 400 460 38,000  Level Toronto Center
08:12AM 42.9167 -82.1833 251° West 380 437 38,000  Level Toronto Center
08:13AM 42.9167 -82.3500 270° West 380 437 38,000  Level Toronto Center
08:14AM 42.9167 -82.4833 270° West 390 449 38,000  Level Toronto Center
08:15AM 42.9167 -82.6333 270° West 390 449 38,000 -120 Level Toronto Center
08:16AM 42.9403 -82.7386 287° West 386 444 37,800 -420 Descending Cleveland Center
08:17AM 42.9453 -82.9033 272° West 386 444 37,300 -540 Descending Cleveland Center
08:18AM 42.9508 -83.0481 273° West 391 450 36,800 -720 Descending Cleveland Center
08:19AM 42.9536 -83.2014 271° West 391 450 35,900 -1,320 Descending Cleveland Center
08:20AM 42.9586 -83.3492 273° West 396 456 34,200 -1,920 Descending Cleveland Center
08:21AM 42.9503 -83.5078 266° West 406 467 32,100 -1,140 Descending Cleveland Center
08:22AM 42.9378 -83.6717 264° West 423 487 32,000 -60 Descending Cleveland Center
08:23AM 42.9297 -83.8158 266° West 431 496 32,000  Level Cleveland Center
08:24AM 42.9183 -83.9939 265° West 436 502 32,000  Level Cleveland Center
08:25AM 42.9050 -84.1550 264° West 441 507 32,000  Level Cleveland Center
08:25AM 42.9047 -84.1906 269° West 428 493 32,000  Level Chicago Center
08:26AM 42.8936 -84.3494 265° West 424 488 32,000  Level Chicago Center
08:27AM 42.8817 -84.5097 264° West 425 489 32,000  Level Chicago Center
08:28AM 42.8686 -84.6681 264° West 424 488 32,000  Level Chicago Center
08:29AM 42.8567 -84.8283 264° West 425 489 32,000  Level Chicago Center
08:30AM 42.8428 -84.9872 263° West 425 489 32,000  Level Chicago Center
08:31AM 42.8250 -85.1469 261° West 425 489 32,000 -900 Level Chicago Center
08:32AM 42.8036 -85.3436 262° West 434 499 30,200 -1,860 Descending Chicago Center
08:34AM 42.7844 -85.5094 261° West 442 509 28,200 -1,920 Descending Chicago Center
08:35AM 42.7558 -85.6647 256° West 427 491 26,300 -1,860 Descending Chicago Center
08:36AM 42.7275 -85.8233 256° West 428 493 24,500 -1,800 Descending Chicago Center
08:37AM 42.6989 -85.9814 256° West 428 493 22,700 -1,740 Descending Chicago Center
08:38AM 42.6711 -86.1356 256° West 420 483 21,000 -1,320 Descending Chicago Center
08:39AM 42.6439 -86.2819 256° West 402 463 20,000 -720 Descending Chicago Center
08:40AM 42.6158 -86.4225 255° West 388 447 19,600 -1,140 Descending Chicago Center
08:41AM 42.5897 -86.5631 256° West 384 442 17,700 -1,860 Descending Chicago Center
08:42AM 42.5608 -86.7264 257° West 373 429 15,800 -1,680 Descending Chicago Center
08:43AM 42.5250 -86.8575 250° West 374 430 14,300 -1,440 Descending Chicago Center
08:44AM 42.4903 -86.9872 250° West 369 425 12,900 -1,320 Descending Chicago Center
08:45AM 42.4542 -87.1119 249° West 358 412 11,600 -1,140 Descending Chicago Center
08:46AM 42.4194 -87.2369 249° West 356 410 10,600 -780 Descending Chicago Center
08:47AM 42.3875 -87.3569 250° West 343 395 10,000 -300 Descending Chicago Center
08:48AM 42.3514 -87.4878 250° West 342 394 10,000  Level Chicago Center
08:49AM 42.2897 -87.5836 229° Southwest 349 402 10,000  Level Chicago Center
08:50AM 42.2128 -87.6667 219° Southwest 354 407 10,000 -540 Level Chicago Center
08:51AM 42.1367 -87.7578 222° Southwest 301 346 9,000 -1,440 Descending Chicago Center
08:52AM 42.1208 -87.8578 258° West 274 315 7,100 -1,200 Descending Chicago Center
08:53AM 42.1167 -87.9167 265° West 279 321 7,100  Level Chicago TRACON
08:54AM 42.1000 -88.0167 257° West 258 297 7,100 -720 Level Chicago TRACON
08:55AM 42.1000 -88.1000 270° West 230 265 5,700 -1,440 Descending Chicago TRACON
08:55AM 42.0906 -88.1364 251° West 232 267 4,900 -1,140 Descending Chicago Center
08:56AM 42.0536 -88.2011 232° Southwest 231 266 4,000 -480 Descending Chicago Center
08:57AM 42.0042 -88.1714 156° South 212 244 4,000 -540 Level Chicago Center
08:58AM 41.9811 -88.1078 116° Southeast 196 226 3,000 -1,020 Descending Chicago Center
08:59AM 41.9833 -88.0833 83° East 174 200 2,600 -600 Descending Chicago TRACON
09:00AM 41.9833 -88.0167 90° East 165 190 2,200 -600 Descending Chicago TRACON
09:01AM 41.9833 -87.9667 90° East 134 154 1,500 -720 Descending Chicago TRACON
09:03AM 41.9817 -87.9067 119° Southeast  Level Estimated
09:10AM 41.9817 -87.9067 119° Southeast  Level Estimated